Time;durP1;ratioP1;P1;durP2;ratioP2;P2;SDS_P1;SDS_P2;PMS_P1;PMS_P2;Temp;Humidity;BMP_temperature;BMP_pressure;BME280_temperature;BME280_humidity;BME280_pressure;Samples;Min_cycle;Max_cycle;Signal;HPM_P1;HPM_P2
2022/03/29 00:01:58;;;;;;;30.70;16.73;;;5.90;99.90;;;;;;5054538;28;20122;-85
2022/03/29 00:04:24;;;;;;;35.03;18.50;;;5.90;99.90;;;;;;5053883;28;20059;-85
2022/03/29 00:06:51;;;;;;;35.37;18.97;;;5.90;99.90;;;;;;5053416;28;20474;-84
2022/03/29 00:09:16;;;;;;;36.40;18.93;;;5.90;99.90;;;;;;5054765;28;20036;-84
2022/03/29 00:11:43;;;;;;;36.60;19.80;;;5.90;99.90;;;;;;5053831;28;20118;-84
2022/03/29 00:14:09;;;;;;;37.87;20.13;;;6.00;99.90;;;;;;5053626;28;20128;-85
2022/03/29 00:16:35;;;;;;;40.67;21.67;;;6.00;99.90;;;;;;5054177;28;20500;-84
2022/03/29 00:19:01;;;;;;;39.13;21.73;;;5.90;99.90;;;;;;5053934;28;20075;-84
2022/03/29 00:21:26;;;;;;;40.33;21.47;;;5.90;99.90;;;;;;5054448;28;20037;-85
2022/03/29 00:23:52;;;;;;;39.93;22.20;;;6.00;99.90;;;;;;5055194;28;20486;-85
2022/03/29 00:26:18;;;;;;;42.73;22.20;;;5.90;99.90;;;;;;5053687;28;20047;-84
2022/03/29 00:28:44;;;;;;;42.33;23.10;;;6.10;99.90;;;;;;5054318;28;20044;-84
2022/03/29 00:31:14;;;;;;;44.50;23.50;;;6.00;99.90;;;;;;5053185;28;20392;-85
2022/03/29 00:33:40;;;;;;;42.50;23.43;;;5.90;99.90;;;;;;5052480;28;20071;-85
2022/03/29 00:36:05;;;;;;;41.87;22.90;;;5.90;99.90;;;;;;5054651;28;20045;-84
2022/03/29 00:38:31;;;;;;;47.22;23.80;;;5.90;99.90;;;;;;5054189;28;20049;-84
2022/03/29 00:40:58;;;;;;;42.30;23.07;;;5.90;99.90;;;;;;5052474;28;20081;-85
2022/03/29 00:43:24;;;;;;;42.90;23.37;;;5.90;99.90;;;;;;5052761;28;20052;-85
2022/03/29 00:45:50;;;;;;;43.03;23.60;;;5.90;99.90;;;;;;5052843;28;20103;-85
2022/03/29 00:48:15;;;;;;;41.47;22.67;;;5.90;99.90;;;;;;5052792;28;20135;-85
2022/03/29 00:50:42;;;;;;;45.30;23.50;;;6.00;99.90;;;;;;5053947;28;20041;-85
2022/03/29 00:53:09;;;;;;;42.47;23.05;;;6.00;99.90;;;;;;5053640;28;20041;-85
2022/03/29 00:55:36;;;;;;;42.60;23.27;;;6.00;99.90;;;;;;5053577;28;20133;-85
2022/03/29 00:58:03;;;;;;;39.07;22.17;;;6.00;99.90;;;;;;5052574;28;20072;-85
2022/03/29 01:00:32;;;;;;;43.80;24.07;;;5.90;99.90;;;;;;5052537;28;20642;-85
2022/03/29 01:02:59;;;;;;;42.63;23.53;;;5.90;99.90;;;;;;5052803;28;20041;-85
2022/03/29 01:05:26;;;;;;;42.80;22.37;;;5.90;99.90;;;;;;5052665;28;20119;-85
2022/03/29 01:07:57;;;;;;;42.37;22.17;;;5.90;99.90;;;;;;5051606;28;20060;-85
2022/03/29 01:10:24;;;;;;;41.23;22.10;;;5.90;99.90;;;;;;5052344;28;20515;-85
2022/03/29 01:12:54;;;;;;;40.90;22.73;;;5.80;99.90;;;;;;5052818;28;20143;-85
2022/03/29 01:15:22;;;;;;;42.40;22.87;;;5.80;99.90;;;;;;5052542;28;20095;-85
2022/03/29 01:17:49;;;;;;;44.20;23.60;;;5.80;99.90;;;;;;5053464;28;20112;-85
2022/03/29 01:20:20;;;;;;;43.97;23.33;;;5.80;99.90;;;;;;5052967;28;20049;-85
2022/03/29 01:22:50;;;;;;;42.33;22.60;;;5.80;99.90;;;;;;5052376;28;20627;-85
2022/03/29 01:25:20;;;;;;;42.63;23.50;;;5.90;99.90;;;;;;5052181;28;20049;-85
2022/03/29 01:27:48;;;;;;;43.30;23.90;;;5.80;99.90;;;;;;5053408;28;20047;-86
2022/03/29 01:30:14;;;;;;;47.83;25.40;;;5.80;99.90;;;;;;5053012;28;20051;-85
2022/03/29 01:32:45;;;;;;;44.20;24.30;;;5.80;99.90;;;;;;5053586;28;20049;-85
2022/03/29 01:35:11;;;;;;;45.50;24.93;;;5.80;99.90;;;;;;5053582;28;20093;-85
2022/03/29 01:37:38;;;;;;;47.57;25.93;;;5.90;99.90;;;;;;5052504;28;20041;-85
2022/03/29 01:40:15;;;;;;;48.63;26.23;;;5.80;99.90;;;;;;5052834;28;20064;-85
2022/03/29 01:42:58;;;;;;;49.47;25.93;;;5.80;99.90;;;;;;5051223;28;20130;-85
2022/03/29 01:45:26;;;;;;;46.17;24.37;;;5.80;99.90;;;;;;5051136;28;20091;-85
2022/03/29 01:47:52;;;;;;;45.77;23.67;;;5.80;99.90;;;;;;5051529;28;20080;-85
2022/03/29 01:50:18;;;;;;;48.30;24.17;;;5.80;99.90;;;;;;5050655;28;20095;-85
2022/03/29 01:52:46;;;;;;;41.53;22.17;;;5.70;99.90;;;;;;5052913;28;20481;-85
2022/03/29 01:55:14;;;;;;;42.83;23.13;;;5.80;99.90;;;;;;5051155;28;20492;-85
2022/03/29 01:57:40;;;;;;;42.37;22.13;;;5.80;99.90;;;;;;5051021;28;20071;-85
2022/03/29 02:02:52;;;;;;;41.23;21.57;;;5.80;99.90;;;;;;5052217;28;20403;-85
2022/03/29 02:05:19;;;;;;;41.60;22.23;;;5.70;99.90;;;;;;5049625;28;20052;-85
2022/03/29 02:07:45;;;;;;;39.47;22.50;;;5.70;99.90;;;;;;5052218;28;20476;-85
2022/03/29 02:10:11;;;;;;;42.60;21.30;;;5.70;99.90;;;;;;5051658;28;20052;-85
2022/03/29 02:12:37;;;;;;;40.93;21.30;;;5.80;99.90;;;;;;5050371;28;20484;-85
2022/03/29 02:15:03;;;;;;;41.80;21.00;;;5.70;99.90;;;;;;5051332;28;20052;-85
2022/03/29 02:17:29;;;;;;;41.87;21.93;;;5.80;99.90;;;;;;5050916;28;20052;-85
2022/03/29 02:19:54;;;;;;;40.43;20.10;;;5.80;99.90;;;;;;5051585;28;20404;-85
2022/03/29 02:22:20;;;;;;;44.33;21.80;;;5.80;99.90;;;;;;5052046;28;20047;-85
2022/03/29 02:24:45;;;;;;;42.57;22.43;;;5.80;99.90;;;;;;5050186;28;20049;-85
2022/03/29 02:27:11;;;;;;;44.30;22.50;;;5.80;99.90;;;;;;5052445;28;20044;-85
2022/03/29 02:29:36;;;;;;;44.27;22.57;;;5.80;99.90;;;;;;5050767;28;20041;-85
2022/03/29 02:32:02;;;;;;;44.90;23.40;;;5.70;99.90;;;;;;5051603;28;20064;-85
2022/03/29 02:34:28;;;;;;;43.60;22.77;;;5.80;99.90;;;;;;5051884;28;20045;-85
2022/03/29 02:36:55;;;;;;;48.07;23.03;;;5.80;99.90;;;;;;5052826;28;20045;-85
2022/03/29 02:39:20;;;;;;;45.03;23.27;;;5.80;99.90;;;;;;5051777;28;20045;-85
2022/03/29 02:41:46;;;;;;;44.23;23.27;;;5.80;99.90;;;;;;5052320;28;20048;-85
2022/03/29 02:44:11;;;;;;;42.87;22.73;;;5.80;99.90;;;;;;5050568;28;20041;-84
2022/03/29 02:46:37;;;;;;;44.07;22.37;;;5.70;99.90;;;;;;5050156;28;20037;-85
2022/03/29 02:49:02;;;;;;;43.90;23.40;;;5.70;99.90;;;;;;5052311;28;20044;-85
2022/03/29 02:51:28;;;;;;;43.60;22.20;;;5.80;99.90;;;;;;5050520;28;20041;-85
2022/03/29 02:53:54;;;;;;;43.97;22.80;;;5.70;99.90;;;;;;5051480;28;20099;-85
2022/03/29 02:56:20;;;;;;;44.00;21.90;;;5.70;99.90;;;;;;5050632;28;20400;-85
2022/03/29 02:58:45;;;;;;;41.57;22.27;;;5.70;99.90;;;;;;5067460;28;20036;-85
2022/03/29 03:01:11;;;;;;;40.97;20.97;;;5.80;99.90;;;;;;5051101;28;20041;-85
2022/03/29 03:03:37;;;;;;;43.03;21.33;;;5.80;99.90;;;;;;5050864;28;20135;-85
2022/03/29 03:06:03;;;;;;;39.70;19.33;;;5.80;99.90;;;;;;5050635;28;20049;-85
2022/03/29 03:08:29;;;;;;;40.07;20.17;;;5.80;99.90;;;;;;5050197;28;20077;-85
2022/03/29 03:10:54;;;;;;;37.67;19.50;;;5.80;99.90;;;;;;5052373;28;20461;-85
2022/03/29 03:13:20;;;;;;;40.23;19.93;;;5.80;99.90;;;;;;5050481;28;20103;-85
2022/03/29 03:15:45;;;;;;;39.27;20.07;;;5.80;99.90;;;;;;5051209;28;20056;-85
2022/03/29 03:18:12;;;;;;;40.43;20.00;;;5.70;99.90;;;;;;5051797;28;20033;-85
2022/03/29 03:20:38;;;;;;;39.80;20.37;;;5.80;99.90;;;;;;5052420;28;20053;-85
2022/03/29 03:23:03;;;;;;;36.07;18.53;;;5.80;99.90;;;;;;5050254;28;20091;-85
2022/03/29 03:25:29;;;;;;;37.47;19.27;;;6.70;99.90;;;;;;5051985;28;20041;-85
2022/03/29 03:27:54;;;;;;;36.27;19.07;;;5.80;99.90;;;;;;5050251;28;20051;-85
2022/03/29 03:30:20;;;;;;;38.90;18.97;;;5.80;99.90;;;;;;5051630;28;20044;-85
2022/03/29 03:32:49;;;;;;;37.90;18.97;;;5.70;99.90;;;;;;5051988;28;20076;-85
2022/03/29 03:35:14;;;;;;;36.23;18.73;;;5.80;99.90;;;;;;5051049;28;20045;-85
2022/03/29 03:37:40;;;;;;;41.47;20.00;;;5.70;99.90;;;;;;5055485;28;20094;-85
2022/03/29 03:40:08;;;;;;;40.00;19.20;;;5.70;99.90;;;;;;5054088;28;20507;-85
2022/03/29 03:42:35;;;;;;;38.80;19.43;;;5.70;99.90;;;;;;5053508;28;20045;-85
2022/03/29 03:45:03;;;;;;;37.30;20.17;;;5.70;99.90;;;;;;5054983;28;20557;-85
2022/03/29 03:47:29;;;;;;;41.97;20.33;;;5.70;99.90;;;;;;5054014;28;20044;-85
2022/03/29 03:49:55;;;;;;;43.57;20.50;;;5.80;99.90;;;;;;5053560;28;20055;-85
2022/03/29 03:52:20;;;;;;;39.57;19.97;;;5.70;99.90;;;;;;5053807;28;20029;-85
2022/03/29 03:54:46;;;;;;;40.60;20.30;;;5.80;99.90;;;;;;5055136;28;20523;-85
2022/03/29 03:57:12;;;;;;;41.83;20.53;;;5.70;99.90;;;;;;5053885;28;20041;-85
2022/03/29 03:59:37;;;;;;;43.73;20.27;;;5.80;99.90;;;;;;5054828;28;20120;-86
2022/03/29 04:02:03;;;;;;;44.00;21.70;;;5.80;99.90;;;;;;5047558;28;20080;-85
2022/03/29 04:04:30;;;;;;;43.90;20.40;;;5.80;99.90;;;;;;5051142;28;20136;-85
2022/03/29 04:06:56;;;;;;;40.00;19.87;;;5.80;99.90;;;;;;5053743;28;20040;-85
2022/03/29 04:09:22;;;;;;;44.37;21.10;;;5.80;99.90;;;;;;5054713;28;20045;-86
2022/03/29 04:11:48;;;;;;;44.20;21.67;;;5.80;99.90;;;;;;5052860;28;20037;-86
2022/03/29 04:14:13;;;;;;;44.47;21.60;;;5.80;99.90;;;;;;5054638;28;20049;-86
2022/03/29 04:16:40;;;;;;;64.57;29.10;;;5.80;99.90;;;;;;5053685;28;20097;-85
2022/03/29 04:19:06;;;;;;;41.77;19.17;;;5.80;99.90;;;;;;5052979;28;20445;-85
2022/03/29 04:21:31;;;;;;;41.17;19.60;;;5.80;99.90;;;;;;5053038;28;20179;-85
2022/03/29 04:23:57;;;;;;;41.03;20.40;;;5.80;99.90;;;;;;5053249;28;20079;-85
2022/03/29 04:26:23;;;;;;;41.97;19.87;;;5.80;99.90;;;;;;5052712;28;20130;-85
2022/03/29 04:28:48;;;;;;;40.23;20.13;;;5.90;99.90;;;;;;5053265;28;20080;-85
2022/03/29 04:31:14;;;;;;;42.83;19.80;;;5.90;99.90;;;;;;5053487;28;20091;-85
2022/03/29 04:33:40;;;;;;;40.00;20.10;;;5.80;99.90;;;;;;5053085;28;20485;-85
2022/03/29 04:36:06;;;;;;;36.67;18.10;;;5.80;99.90;;;;;;5053300;28;20049;-85
2022/03/29 04:38:32;;;;;;;36.27;18.93;;;5.90;99.90;;;;;;5051893;28;20163;-85
2022/03/29 04:40:58;;;;;;;39.40;19.20;;;5.90;99.90;;;;;;5053592;28;20044;-86
2022/03/29 04:43:24;;;;;;;35.90;18.17;;;5.90;99.90;;;;;;5052972;28;20056;-85
2022/03/29 04:45:49;;;;;;;37.03;17.87;;;6.60;99.90;;;;;;5053505;28;20052;-85
2022/03/29 04:48:15;;;;;;;38.43;19.50;;;5.90;99.90;;;;;;5052256;28;20138;-85
2022/03/29 04:50:41;;;;;;;36.77;19.00;;;5.90;99.90;;;;;;5053839;28;20041;-85
2022/03/29 04:53:08;;;;;;;36.87;18.67;;;5.90;99.90;;;;;;5051645;28;20078;-86
2022/03/29 04:55:34;;;;;;;37.57;17.40;;;5.90;99.90;;;;;;5053980;28;20045;-85
2022/03/29 04:58:00;;;;;;;35.77;18.27;;;5.90;99.90;;;;;;5053848;28;20102;-85
2022/03/29 05:00:26;;;;;;;34.07;18.00;;;5.90;99.90;;;;;;5051581;28;20064;-85
2022/03/29 05:02:52;;;;;;;36.87;18.30;;;5.90;99.90;;;;;;5052463;28;20049;-86
2022/03/29 05:05:18;;;;;;;36.13;17.80;;;5.90;99.90;;;;;;5052373;28;20037;-85
2022/03/29 05:07:44;;;;;;;40.73;18.17;;;5.90;99.90;;;;;;5051635;28;20087;-85
2022/03/29 05:10:11;;;;;;;36.70;17.93;;;5.90;99.90;;;;;;5053945;28;20163;-85
2022/03/29 05:12:42;;;;;;;37.20;18.00;;;5.90;99.90;;;;;;5053814;28;20045;-85
2022/03/29 05:15:08;;;;;;;35.63;17.33;;;5.90;99.90;;;;;;5051660;28;20131;-85
2022/03/29 05:17:35;;;;;;;33.85;17.95;;;5.90;99.90;;;;;;5053476;28;20083;-85
2022/03/29 05:20:02;;;;;;;35.60;17.30;;;5.90;99.90;;;;;;5052232;28;20049;-85
2022/03/29 05:22:28;;;;;;;36.63;17.63;;;5.90;99.90;;;;;;5051307;28;20048;-84
2022/03/29 05:24:53;;;;;;;35.77;17.10;;;5.90;99.90;;;;;;5052144;28;20052;-85
2022/03/29 05:27:19;;;;;;;33.03;16.57;;;5.90;99.90;;;;;;5051466;28;20128;-85
2022/03/29 05:29:45;;;;;;;33.27;16.87;;;5.90;99.90;;;;;;5052645;28;20072;-85
2022/03/29 05:32:10;;;;;;;30.27;16.23;;;5.90;99.90;;;;;;5052911;28;20044;-85
2022/03/29 05:34:36;;;;;;;35.27;16.63;;;5.90;99.90;;;;;;5052485;28;20411;-85
2022/03/29 05:37:02;;;;;;;34.60;16.57;;;5.90;99.90;;;;;;5053420;28;20029;-85
2022/03/29 05:39:28;;;;;;;32.90;15.83;;;5.90;99.90;;;;;;5051668;28;20496;-85
2022/03/29 05:41:53;;;;;;;32.63;16.30;;;5.90;99.90;;;;;;5051414;28;20136;-85
2022/03/29 05:44:19;;;;;;;33.30;17.10;;;5.90;99.90;;;;;;5052082;28;20124;-86
2022/03/29 05:49:30;;;;;;;35.97;16.40;;;5.90;99.90;;;;;;5052049;28;20079;-85
2022/03/29 05:51:56;;;;;;;29.53;16.13;;;6.90;99.90;;;;;;5053203;28;20045;-86
2022/03/29 05:54:22;;;;;;;36.23;16.73;;;5.90;99.90;;;;;;5052608;28;20110;-85
2022/03/29 05:56:47;;;;;;;33.03;16.20;;;5.90;99.90;;;;;;5067516;28;20049;-85
2022/03/29 05:59:13;;;;;;;31.27;16.00;;;5.90;99.90;;;;;;5050870;28;20055;-85
2022/03/29 06:01:39;;;;;;;32.87;16.80;;;6.00;99.90;;;;;;5056722;28;20063;-86
2022/03/29 06:04:06;;;;;;;31.40;17.00;;;6.00;99.90;;;;;;5050752;28;20396;-89
2022/03/29 06:06:40;;;;;;;29.87;16.07;;;6.60;99.90;;;;;;5052641;28;20041;-90
2022/03/29 06:09:06;;;;;;;33.70;17.13;;;6.80;99.90;;;;;;5052401;28;20069;-87
2022/03/29 06:11:38;;;;;;;34.47;16.67;;;7.40;99.90;;;;;;5051773;28;20037;-88
2022/03/29 06:14:03;;;;;;;33.03;16.80;;;6.20;99.90;;;;;;5051477;28;20044;-88
2022/03/29 06:16:38;;;;;;;33.60;17.10;;;6.10;99.90;;;;;;5052394;28;20087;-88
2022/03/29 06:19:04;;;;;;;29.63;16.63;;;6.10;99.90;;;;;;5050780;28;20400;-88
2022/03/29 06:21:42;;;;;;;31.30;16.27;;;5.90;99.90;;;;;;5051844;28;20044;-89
2022/03/29 06:24:11;;;;;;;33.43;17.23;;;6.20;99.90;;;;;;5050650;28;20045;-89
2022/03/29 06:26:46;;;;;;;36.00;17.93;;;7.60;99.90;;;;;;5051213;28;20041;-89
2022/03/29 06:29:12;;;;;;;37.60;16.50;;;5.90;99.90;;;;;;5050860;28;20048;-89
2022/03/29 06:31:44;;;;;;;31.03;16.90;;;6.70;99.90;;;;;;5050552;28;20056;-88
2022/03/29 06:34:16;;;;;;;33.33;17.27;;;7.10;99.90;;;;;;5052240;28;20062;-89
2022/03/29 06:36:51;;;;;;;32.88;17.38;;;6.30;99.90;;;;;;5050765;28;20377;-87
2022/03/29 06:39:16;;;;;;;39.00;19.25;;;6.10;99.90;;;;;;5051232;28;20519;-87
2022/03/29 06:41:42;;;;;;;36.33;19.08;;;6.20;99.90;;;;;;5052659;28;20187;-87
2022/03/29 06:44:08;;;;;;;36.90;19.13;;;6.10;99.90;;;;;;5051047;28;20079;-87
2022/03/29 06:46:43;;;;;;;36.67;18.03;;;5.90;99.90;;;;;;5058982;28;20048;-87
2022/03/29 06:49:19;;;;;;;33.83;18.17;;;6.20;99.90;;;;;;5068067;28;20041;-88
2022/03/29 06:51:52;;;;;;;34.73;18.03;;;6.00;99.90;;;;;;5029308;22;20569;-89
2022/03/29 06:54:27;;;;;;;38.10;18.95;;;6.40;99.90;;;;;;5045558;22;20556;-88
2022/03/29 06:57:11;;;;;;;33.67;17.70;;;6.20;99.90;;;;;;5054495;28;20051;-88
2022/03/29 06:59:45;;;;;;;35.85;19.25;;;6.20;99.90;;;;;;5054027;28;20102;-88
2022/03/29 07:02:24;;;;;;;37.27;19.57;;;6.30;99.90;;;;;;5056630;28;20076;-88
2022/03/29 07:05:03;;;;;;;39.07;19.60;;;6.30;99.90;;;;;;5078078;28;20100;-90
2022/03/29 07:07:41;;;;;;;39.67;19.80;;;6.20;99.90;;;;;;5059935;28;20052;-89
2022/03/29 07:13:34;;;;;;;39.00;20.07;;;6.30;99.90;;;;;;5055105;28;20052;-88
2022/03/29 07:16:09;;;;;;;38.47;19.07;;;6.40;99.90;;;;;;5038111;28;20045;-89
2022/03/29 07:18:43;;;;;;;39.28;19.08;;;7.60;99.90;;;;;;5038140;28;20037;-89
2022/03/29 07:21:15;;;;;;;43.40;19.27;;;7.90;99.90;;;;;;5047844;28;20487;-88
2022/03/29 07:23:53;;;;;;;39.33;19.40;;;7.90;99.90;;;;;;5058199;28;20037;-87
2022/03/29 07:26:25;;;;;;;41.15;18.08;;;7.40;99.90;;;;;;5037437;28;20060;-88
2022/03/29 07:29:04;;;;;;;34.83;19.02;;;7.30;99.90;;;;;;5030532;28;20044;-89
2022/03/29 07:31:31;;;;;;;33.22;17.80;;;6.60;99.90;;;;;;5070331;28;20433;-89
2022/03/29 07:33:57;;;;;;;37.23;17.93;;;7.20;99.90;;;;;;5075599;28;20391;-88
2022/03/29 07:36:35;;;;;;;36.25;19.55;;;7.60;99.90;;;;;;5074084;28;20037;-88
2022/03/29 07:39:25;;;;;;;38.25;18.88;;;7.90;99.90;;;;;;5075705;22;20106;-88
2022/03/29 07:41:51;;;;;;;34.97;19.40;;;8.40;99.90;;;;;;5036590;28;20412;-88
2022/03/29 07:44:18;;;;;;;36.42;18.77;;;7.40;99.90;;;;;;5055046;28;20192;-88
2022/03/29 07:47:00;;;;;;;36.47;18.65;;;7.40;99.90;;;;;;5055379;28;20472;-91
2022/03/29 07:49:29;;;;;;;37.45;19.30;;;8.50;99.90;;;;;;5036023;28;20056;-87
2022/03/29 07:54:32;;;;;;;34.95;18.38;;;8.10;99.90;;;;;;5103644;22;20049;-89
2022/03/29 07:57:01;;;;;;;37.13;20.02;;;8.20;99.90;;;;;;5074555;28;20041;-86
2022/03/29 07:59:30;;;;;;;35.13;18.42;;;8.50;99.90;;;;;;5063550;23;20060;-86
2022/03/29 08:01:59;;;;;;;36.08;19.05;;;8.30;99.90;;;;;;5075382;28;20051;-86
2022/03/29 08:04:24;;;;;;;35.72;19.08;;;8.40;99.90;;;;;;5081670;22;20046;-85
2022/03/29 08:06:53;;;;;;;35.55;19.00;;;8.30;99.90;;;;;;5094359;28;20044;-86
2022/03/29 08:09:19;;;;;;;33.75;18.25;;;8.70;99.90;;;;;;5092469;28;20040;-86
2022/03/29 08:11:44;;;;;;;34.60;19.35;;;9.60;99.90;;;;;;5088539;28;20048;-86
2022/03/29 08:14:20;;;;;;;31.13;17.88;;;8.40;99.90;;;;;;5093137;28;20110;-86
2022/03/29 08:16:46;;;;;;;35.72;19.48;;;8.50;99.90;;;;;;5094223;28;20116;-86
2022/03/29 08:19:21;;;;;;;34.65;18.98;;;9.30;99.90;;;;;;5093803;28;20470;-86
2022/03/29 08:21:53;;;;;;;34.20;19.40;;;8.70;99.90;;;;;;5093421;28;20040;-86
2022/03/29 08:24:21;;;;;;;31.40;18.02;;;8.70;99.90;;;;;;5092270;28;20483;-86
2022/03/29 08:26:54;;;;;;;31.77;17.45;;;8.70;99.90;;;;;;5093188;28;20044;-87
2022/03/29 08:29:34;;;;;;;32.72;18.48;;;9.50;99.90;;;;;;5093273;28;20044;-86
2022/03/29 08:32:12;;;;;;;36.70;18.67;;;8.60;99.90;;;;;;5092660;28;20040;-87
2022/03/29 08:34:39;;;;;;;33.47;17.70;;;9.30;99.90;;;;;;5094574;28;20043;-86
2022/03/29 08:37:29;;;;;;;34.70;17.98;;;7.80;99.90;;;;;;5094427;22;20115;-86
2022/03/29 08:39:55;;;;;;;33.22;18.65;;;8.60;99.90;;;;;;5036348;28;20095;-86
2022/03/29 08:42:23;;;;;;;37.83;17.25;;;8.50;99.90;;;;;;5035925;28;20427;-86
2022/03/29 08:45:07;;;;;;;31.10;17.65;;;9.30;99.90;;;;;;5035772;28;20057;-85
2022/03/29 08:47:49;;;;;;;34.80;17.10;;;9.30;99.90;;;;;;5036984;28;20072;-90
2022/03/29 08:50:14;;;;;;;33.42;17.50;;;8.90;99.90;;;;;;5053890;28;20052;-94
2022/03/29 08:52:47;;;;;;;33.60;18.42;;;8.80;99.90;;;;;;5053579;28;20048;-89
2022/03/29 08:55:18;;;;;;;35.85;18.15;;;8.90;99.90;;;;;;5053887;28;20076;-88
2022/03/29 08:57:54;;;;;;;34.78;18.20;;;9.20;99.90;;;;;;5045398;28;20041;-90
2022/03/29 09:00:26;;;;;;;36.13;18.75;;;8.80;99.90;;;;;;5029327;28;20499;-91
2022/03/29 09:03:04;;;;;;;32.80;17.58;;;10.10;99.90;;;;;;5024426;28;20045;-91
2022/03/29 09:05:36;;;;;;;34.35;17.63;;;9.30;99.90;;;;;;5030756;28;20152;-90
2022/03/29 09:08:13;;;;;;;34.22;18.50;;;9.40;99.90;;;;;;5047489;28;20041;-90
2022/03/29 09:10:50;;;;;;;34.35;17.80;;;10.10;99.90;;;;;;5031966;28;20045;-90
2022/03/29 09:13:23;;;;;;;32.90;16.95;;;9.40;99.90;;;;;;5053740;28;20403;-92
2022/03/29 09:15:53;;;;;;;28.10;17.05;;;9.40;99.90;;;;;;5055964;28;20520;-90
2022/03/29 09:18:27;;;;;;;32.58;17.70;;;10.20;99.90;;;;;;5035434;28;20102;-90
2022/03/29 09:21:14;;;;;;;31.25;17.25;;;9.70;99.90;;;;;;5053238;28;20498;-90
2022/03/29 09:23:43;;;;;;;29.08;16.90;;;9.50;99.90;;;;;;5035159;28;20411;-90
2022/03/29 09:26:30;;;;;;;35.33;17.55;;;10.20;99.90;;;;;;5026916;28;20045;-90
2022/03/29 09:29:16;;;;;;;34.08;17.50;;;9.70;99.90;;;;;;5016129;28;20051;-90
2022/03/29 09:32:02;;;;;;;33.13;17.77;;;10.30;99.90;;;;;;5016442;28;20073;-89
2022/03/29 09:34:31;;;;;;;31.98;17.20;;;9.50;99.90;;;;;;5025346;28;20068;-90
2022/03/29 09:40:39;;;;;;;35.75;18.25;;;9.60;99.90;;;;;;5052160;28;20511;-89
2022/03/29 09:43:11;;;;;;;34.17;17.75;;;10.40;99.90;;;;;;5036723;28;20059;-95
2022/03/29 09:45:59;;;;;;;32.92;17.85;;;9.70;99.90;;;;;;5036337;28;20052;-90
2022/03/29 09:48:38;;;;;;;30.30;17.10;;;10.10;99.90;;;;;;5035172;28;20171;-90
2022/03/29 09:51:09;;;;;;;31.55;18.20;;;10.00;99.90;;;;;;5054444;28;20044;-90
2022/03/29 09:53:52;;;;;;;32.63;18.40;;;9.90;99.90;;;;;;5039137;28;20056;-90
2022/03/29 09:56:24;;;;;;;36.33;19.40;;;10.00;99.90;;;;;;5043663;28;20507;-90
2022/03/29 09:59:22;;;;;;;32.17;18.50;;;9.90;99.90;;;;;;5067706;28;20110;-92
2022/03/29 10:02:03;;;;;;;33.67;18.92;;;10.00;99.90;;;;;;5038768;28;20518;-92
2022/03/29 10:07:16;;;;;;;37.00;19.67;;;10.00;99.90;;;;;;5084552;22;20049;-87
2022/03/29 10:09:43;;;;;;;33.00;19.70;;;10.10;99.90;;;;;;5034396;28;20045;-87
2022/03/29 10:12:09;;;;;;;38.55;18.98;;;10.00;99.90;;;;;;5052792;28;20044;-87
2022/03/29 10:14:45;;;;;;;31.98;19.77;;;10.00;99.90;;;;;;5042436;28;20408;-87
2022/03/29 10:17:15;;;;;;;34.03;20.13;;;10.10;99.90;;;;;;5057617;28;20492;-88
2022/03/29 10:19:44;;;;;;;38.35;18.73;;;9.80;99.90;;;;;;5035697;28;20599;-85
2022/03/29 10:22:12;;;;;;;33.00;18.25;;;10.00;99.90;;;;;;5066299;28;20048;-86
2022/03/29 10:24:40;;;;;;;32.72;18.52;;;10.00;99.90;;;;;;5058578;28;20037;-87
2022/03/29 10:27:07;;;;;;;32.55;19.45;;;10.00;99.90;;;;;;5042753;28;20047;-89
2022/03/29 10:29:35;;;;;;;33.90;18.33;;;10.30;99.90;;;;;;5052569;28;20055;-89
2022/03/29 10:32:07;;;;;;;34.70;18.35;;;11.00;99.90;;;;;;5053223;28;20398;-90
2022/03/29 10:34:39;;;;;;;34.28;18.38;;;10.20;99.90;;;;;;5054050;28;20479;-91
2022/03/29 10:37:42;;;;;;;34.72;19.20;;;10.50;99.90;;;;;;5071773;28;20042;-89
2022/03/29 10:40:42;;;;;;;35.15;18.52;;;10.70;99.90;;;;;;5054449;28;20049;-91
2022/03/29 10:43:29;;;;;;;38.10;20.02;;;10.80;99.90;;;;;;5054326;28;20040;-89
2022/03/29 10:45:56;;;;;;;33.33;19.40;;;10.40;99.90;;;;;;5056236;28;20037;-92
2022/03/29 10:48:25;;;;;;;29.80;18.95;;;10.90;99.90;;;;;;5058572;28;20037;-94
2022/03/29 10:51:00;;;;;;;29.88;18.63;;;11.10;99.90;;;;;;5058547;28;20462;-89
2022/03/29 10:53:37;;;;;;;30.25;18.55;;;11.20;99.90;;;;;;5058082;28;20048;-92
2022/03/29 10:56:15;;;;;;;31.95;17.83;;;11.20;99.90;;;;;;5060128;28;20573;-93
2022/03/29 10:59:18;;;;;;;29.98;18.25;;;11.10;99.90;;;;;;5066260;28;20041;-93
2022/03/29 11:09:28;;;;;;;25.95;16.27;;;11.20;99.90;;;;;;5065947;28;20041;-91
2022/03/29 11:11:56;;;;;;;30.02;16.50;;;12.10;99.90;;;;;;5091493;22;20085;-90
2022/03/29 11:18:55;;;;;;;32.22;17.00;;;12.90;99.90;;;;;;5397393;22;20056;-94
2022/03/29 11:22:11;;;;;;;28.45;16.42;;;13.10;99.90;;;;;;5081035;22;20052;-92
2022/03/29 11:32:15;;;;;;;30.30;16.90;;;13.20;99.90;;;;;;5076119;28;20084;-94
2022/03/29 11:35:20;;;;;;;30.15;16.95;;;12.70;99.90;;;;;;5078985;28;20127;-95
2022/03/29 11:37:50;;;;;;;27.67;17.40;;;12.70;99.90;;;;;;5076580;28;20426;-94
2022/03/29 11:40:59;;;;;;;28.63;17.02;;;12.80;99.90;;;;;;5075576;28;20058;-95
2022/03/29 11:44:24;;;;;;;29.42;17.73;;;13.00;99.90;;;;;;5049054;28;20056;-95
2022/03/29 11:46:57;;;;;;;26.67;16.83;;;13.40;99.90;;;;;;5075277;28;20433;-94
2022/03/29 11:49:56;;;;;;;31.17;18.05;;;13.50;99.90;;;;;;5073983;28;20132;-95
2022/03/29 11:52:36;;;;;;;29.27;17.63;;;13.50;99.90;;;;;;5073590;28;20127;-94
2022/03/29 11:55:32;;;;;;;26.77;17.60;;;13.80;99.90;;;;;;5073314;28;20041;-94
2022/03/29 11:58:38;;;;;;;31.95;18.50;;;14.00;99.90;;;;;;5073311;28;20044;-95
2022/03/29 12:01:31;;;;;;;30.02;16.95;;;13.70;99.90;;;;;;5075182;28;20079;-94
2022/03/29 12:04:07;;;;;;;28.38;17.80;;;13.80;99.90;;;;;;5075379;28;20033;-94
2022/03/29 12:06:58;;;;;;;30.48;16.48;;;13.80;99.90;;;;;;5061256;28;20052;-95
2022/03/29 12:09:46;;;;;;;25.55;16.05;;;14.90;99.90;;;;;;5074641;28;20101;-95
2022/03/29 12:15:04;;;;;;;26.00;16.35;;;14.40;99.90;;;;;;5340246;22;20053;-94
2022/03/29 12:17:30;;;;;;;26.98;16.40;;;14.30;99.90;;;;;;5036763;28;20053;-95
2022/03/29 12:19:59;;;;;;;26.85;16.80;;;14.10;99.90;;;;;;5038309;28;20045;-95
2022/03/29 12:22:34;;;;;;;24.48;15.57;;;14.20;99.90;;;;;;5039523;28;20048;-96
2022/03/29 12:24:59;;;;;;;26.70;15.27;;;15.50;99.90;;;;;;5037352;28;20045;-95
2022/03/29 12:27:26;;;;;;;26.10;14.40;;;14.30;99.90;;;;;;5055111;28;20052;-94
2022/03/29 12:30:01;;;;;;;24.20;15.13;;;14.70;99.90;;;;;;5036727;28;20049;-94
2022/03/29 12:32:51;;;;;;;23.67;14.30;;;13.30;99.90;;;;;;5037703;28;20044;-94
2022/03/29 12:35:31;;;;;;;25.02;15.07;;;12.90;99.90;;;;;;5050677;28;20037;-93
2022/03/29 12:38:24;;;;;;;23.38;14.20;;;12.40;99.90;;;;;;5036722;28;20037;-94
2022/03/29 12:41:00;;;;;;;25.38;14.35;;;14.20;99.90;;;;;;5038628;28;20481;-94
2022/03/29 12:43:27;;;;;;;;;;;13.90;99.90;;;;;;5045863;28;20049;-94
2022/03/29 12:45:53;;;;;;;24.63;13.70;;;14.70;99.90;;;;;;5041041;28;19920;-94
2022/03/29 12:48:26;;;;;;;24.55;14.00;;;14.40;99.90;;;;;;5065148;22;20191;-93
2022/03/29 12:50:55;;;;;;;;;;;14.90;99.90;;;;;;5062219;28;20119;-94
2022/03/29 12:53:30;;;;;;;24.42;13.85;;;13.80;99.90;;;;;;5038087;28;19925;-94
2022/03/29 12:56:09;;;;;;;25.40;14.05;;;14.00;99.90;;;;;;5036670;28;20056;-95
2022/03/29 12:58:56;;;;;;;25.17;13.90;;;13.60;99.90;;;;;;5053936;28;20087;-93
2022/03/29 13:01:29;;;;;;;25.13;13.48;;;13.50;99.90;;;;;;5052523;23;20044;-94
2022/03/29 13:04:09;;;;;;;22.50;13.20;;;12.10;99.90;;;;;;5054335;28;20045;-93
2022/03/29 13:07:02;;;;;;;23.90;12.18;;;13.10;99.90;;;;;;5055123;28;20041;-93
2022/03/29 13:09:37;;;;;;;25.55;13.25;;;12.80;99.90;;;;;;5054256;28;20044;-94
2022/03/29 13:12:47;;;;;;;23.77;12.35;;;13.10;99.90;;;;;;5053208;28;20095;-92
2022/03/29 13:15:44;;;;;;;28.08;12.98;;;12.80;99.90;;;;;;5041065;28;20091;-93
2022/03/29 13:18:45;;;;;;;21.25;11.80;;;13.10;99.90;;;;;;5045687;28;20041;-92
2022/03/29 13:21:19;;;;;;;23.65;11.88;;;13.50;99.90;;;;;;5005348;28;20489;-93
2022/03/29 13:24:19;;;;;;;26.10;11.60;;;13.40;99.90;;;;;;5046125;28;20041;-93
2022/03/29 13:27:13;;;;;;;23.17;12.48;;;14.20;99.90;;;;;;5041457;28;20128;-92
2022/03/29 13:29:39;;;;;;;22.90;12.07;;;13.30;99.90;;;;;;5045016;28;20041;-92
2022/03/29 13:32:09;;;;;;;24.38;12.30;;;13.10;99.90;;;;;;5042453;28;20045;-92
2022/03/29 13:34:42;;;;;;;24.35;12.25;;;12.90;99.90;;;;;;5041606;28;20508;-91
2022/03/29 13:37:13;;;;;;;22.98;12.32;;;13.10;99.90;;;;;;5049194;28;20041;-92
2022/03/29 13:39:39;;;;;;;21.70;11.55;;;13.80;99.90;;;;;;5041557;28;20044;-91